Helechawa, Kentucky
Current Conditions -  °F | °C
As of 4:53 PM on Saturday 20 Dec 2014 (Local Time) from KJKL Reporting Station
Overcast Overcast  
Wind Chill: 37°   Ceiling: 3900
Heat Index: 37°   Visibility: 10mi
Dew Point: 25°   Wind: 0mph
Humidity: 62%   Direction: NA
Pressure: 30.21"   Gusts: NA
Location:  37.763°N, 83.3905°W
Report Text: KJKL 202153Z AUTO 00000KT 10SM OVC039 03/M04 A3021 RMK AO2 SLP242 T00281039
Loading
Personal Weather Stations






























Interactive Weather Map New forecast layout! Learn more

10-Day Weather Forecast

Advertisements
Track Severe Weather on mobile